createdAt,value
2024-01-24T00:00:33.915Z,8.49
2024-01-24T00:03:35.783Z,8.57
2024-01-24T00:06:37.772Z,8.57
2024-01-24T00:09:39.679Z,8.64
2024-01-24T00:12:41.590Z,8.73
2024-01-24T00:15:44.819Z,8.72
2024-01-24T00:18:46.638Z,8.72
2024-01-24T00:21:48.418Z,8.80
2024-01-24T00:24:50.355Z,8.87
2024-01-24T00:27:52.185Z,8.85
2024-01-24T00:30:55.339Z,8.89
2024-01-24T00:33:57.405Z,8.93
2024-01-24T00:36:59.225Z,9.01
2024-01-24T00:40:00.999Z,9.07
2024-01-24T00:43:02.774Z,9.01
2024-01-24T00:46:06.309Z,9.01
2024-01-24T00:49:10.000Z,8.96
2024-01-24T00:52:11.874Z,9.07
2024-01-24T00:55:13.744Z,9.12
2024-01-24T00:58:15.481Z,9.13
2024-01-24T01:01:18.671Z,9.25
2024-01-24T01:04:22.858Z,9.13
2024-01-24T01:07:24.695Z,9.16
2024-01-24T01:10:26.954Z,9.18
2024-01-24T01:13:28.784Z,9.13
2024-01-24T01:16:32.359Z,9.15
2024-01-24T01:19:34.222Z,9.19
2024-01-24T01:22:35.971Z,9.28
2024-01-24T01:25:37.720Z,9.10
2024-01-24T01:28:39.742Z,9.19
2024-01-24T01:31:42.814Z,9.14
2024-01-24T01:34:44.569Z,9.10
2024-01-24T01:37:46.365Z,9.08
2024-01-24T01:40:48.037Z,9.09
2024-01-24T01:44:09.677Z,9.12
2024-01-24T01:47:22.833Z,9.16
2024-01-24T01:50:24.921Z,9.17
2024-01-24T01:53:27.663Z,9.12
2024-01-24T01:56:29.604Z,9.10
2024-01-24T01:59:31.636Z,9.23
2024-01-24T02:02:34.730Z,9.16
2024-01-24T02:05:39.333Z,9.19
2024-01-24T02:08:41.383Z,9.17
2024-01-24T02:11:43.257Z,9.12
2024-01-24T02:14:54.979Z,9.15
2024-01-24T02:18:08.067Z,9.20
2024-01-24T02:21:10.026Z,9.16
2024-01-24T02:28:34.733Z,9.67
2024-01-24T02:31:36.423Z,10.18
2024-01-24T02:34:38.402Z,10.21
2024-01-24T02:37:40.295Z,10.38
2024-01-24T02:40:42.357Z,10.50
2024-01-24T02:43:45.481Z,10.50
2024-01-24T02:46:47.239Z,10.48
2024-01-24T02:49:48.988Z,10.48
2024-01-24T02:52:50.808Z,10.49
2024-01-24T02:55:52.852Z,10.48
2024-01-24T02:58:56.093Z,10.50
2024-01-24T03:01:57.815Z,10.60
2024-01-24T03:05:00.518Z,10.54
2024-01-24T03:08:07.487Z,10.57
2024-01-24T03:11:11.344Z,10.57
2024-01-24T03:14:14.411Z,10.59
2024-01-24T03:17:16.245Z,10.63
2024-01-24T03:20:18.215Z,10.61
2024-01-24T03:23:20.319Z,10.59
2024-01-24T03:26:22.508Z,10.64
2024-01-24T03:29:25.591Z,10.73
2024-01-24T03:32:27.442Z,10.56
2024-01-24T03:35:34.783Z,10.67
2024-01-24T03:38:36.655Z,10.62
2024-01-24T03:41:39.090Z,10.68
2024-01-24T03:44:42.241Z,10.67
2024-01-24T03:47:44.075Z,10.76
2024-01-24T03:50:45.910Z,10.70
2024-01-24T03:53:47.642Z,10.68
2024-01-24T03:56:49.472Z,10.64
2024-01-24T03:59:52.582Z,10.76
2024-01-24T04:02:54.348Z,10.64
2024-01-24T04:05:56.965Z,10.71
2024-01-24T04:08:58.783Z,10.66
2024-01-24T04:12:06.044Z,10.75
2024-01-24T04:15:10.240Z,10.72
2024-01-24T04:18:12.206Z,10.84
2024-01-24T04:21:14.112Z,10.83
2024-01-24T04:24:16.788Z,10.85
2024-01-24T04:27:19.284Z,11.01
2024-01-24T04:30:22.658Z,11.22
2024-01-24T04:33:24.520Z,11.13
2024-01-24T04:36:26.543Z,11.29
2024-01-24T04:39:28.512Z,11.11
2024-01-24T04:42:30.266Z,11.23
2024-01-24T04:45:33.322Z,11.36
2024-01-24T04:48:35.139Z,11.57
2024-01-24T04:51:36.885Z,11.63
2024-01-24T04:54:38.762Z,11.57
2024-01-24T04:57:41.568Z,11.51
2024-01-24T05:00:44.795Z,11.67
2024-01-24T05:03:46.750Z,11.61
2024-01-24T05:06:48.659Z,11.44
2024-01-24T05:09:53.422Z,11.26
2024-01-24T05:12:55.497Z,11.25
2024-01-24T05:15:59.661Z,11.20
2024-01-24T05:19:01.563Z,11.15
2024-01-24T05:22:03.498Z,11.50
2024-01-24T05:25:06.349Z,11.23
2024-01-24T05:28:09.378Z,11.14
2024-01-24T05:31:12.597Z,11.13
2024-01-24T05:34:14.645Z,11.30
2024-01-24T05:37:16.452Z,11.19
2024-01-24T05:40:18.523Z,11.28
2024-01-24T05:43:20.418Z,11.43
2024-01-24T05:46:23.477Z,11.58
2024-01-24T05:49:25.488Z,11.72
2024-01-24T05:52:27.410Z,11.88
2024-01-24T05:55:29.631Z,11.93
2024-01-24T05:58:31.304Z,12.14
2024-01-24T06:01:34.560Z,11.93
2024-01-24T06:04:36.642Z,11.95
2024-01-24T06:07:41.243Z,11.91
2024-01-24T06:10:43.062Z,11.80
2024-01-24T06:13:45.058Z,11.84
2024-01-24T06:16:48.180Z,11.81
2024-01-24T06:19:51.279Z,11.80
2024-01-24T06:22:52.980Z,11.79
2024-01-24T06:25:54.889Z,11.75
2024-01-24T06:28:58.026Z,11.70
2024-01-24T06:32:01.094Z,11.69
2024-01-24T06:35:03.255Z,11.60
2024-01-24T06:38:05.171Z,11.56
2024-01-24T06:41:06.988Z,11.51
2024-01-24T06:44:08.908Z,11.48
2024-01-24T06:47:11.920Z,11.45
2024-01-24T06:50:14.952Z,11.52
2024-01-24T06:53:16.842Z,11.40
2024-01-24T06:56:18.824Z,11.51
2024-01-24T06:59:20.966Z,11.48
2024-01-24T07:02:24.068Z,11.61
2024-01-24T07:05:25.964Z,11.66
2024-01-24T07:08:28.560Z,11.72
2024-01-24T07:11:30.269Z,11.66
2024-01-24T07:14:31.997Z,11.63
2024-01-24T07:17:35.129Z,11.53
2024-01-24T07:20:37.112Z,11.47
2024-01-24T07:23:40.247Z,11.54
2024-01-24T07:26:42.055Z,11.56
2024-01-24T07:29:43.726Z,11.48
2024-01-24T07:32:46.827Z,11.45
2024-01-24T07:35:48.565Z,11.34
2024-01-24T07:38:50.280Z,11.38
2024-01-24T07:41:52.060Z,11.32
2024-01-24T07:44:53.691Z,11.26
2024-01-24T07:47:56.888Z,11.38
2024-01-24T07:50:58.986Z,11.42
2024-01-24T07:54:00.761Z,11.44
2024-01-24T07:57:04.686Z,11.45
2024-01-24T08:00:08.069Z,11.50
2024-01-24T08:03:11.307Z,11.49
2024-01-24T08:06:13.142Z,11.54
2024-01-24T08:09:15.581Z,11.57
2024-01-24T08:12:17.786Z,11.59
2024-01-24T08:15:20.111Z,11.65
2024-01-24T08:18:23.341Z,11.58
2024-01-24T08:21:25.193Z,11.47
2024-01-24T08:24:27.144Z,11.34
2024-01-24T08:27:29.099Z,11.25
2024-01-24T08:30:31.438Z,11.19
2024-01-24T08:33:54.790Z,11.15
2024-01-24T08:40:30.064Z,11.14
2024-01-24T08:43:31.764Z,11.17
2024-01-24T08:46:34.045Z,11.23
2024-01-24T08:49:35.871Z,11.29
2024-01-24T08:52:42.970Z,11.34
2024-01-24T08:58:17.076Z,11.45
2024-01-24T09:01:19.078Z,11.58
2024-01-24T09:04:26.158Z,11.60
2024-01-24T09:07:27.981Z,11.65
2024-01-24T09:10:30.407Z,11.65
2024-01-24T09:13:34.248Z,11.61
2024-01-24T09:16:36.032Z,11.64
2024-01-24T09:19:41.479Z,11.69
2024-01-24T09:22:44.190Z,11.72
2024-01-24T09:25:46.080Z,11.72
2024-01-24T09:31:20.677Z,12.01
2024-01-24T09:34:24.609Z,12.18
2024-01-24T09:37:29.835Z,12.38
2024-01-24T09:40:38.736Z,12.74
2024-01-24T09:43:40.585Z,12.60
2024-01-24T09:46:44.156Z,12.68
2024-01-24T09:49:47.261Z,12.77
2024-01-24T09:52:51.408Z,12.70
2024-01-24T09:55:54.569Z,12.76
2024-01-24T09:58:57.032Z,12.72
2024-01-24T10:02:09.940Z,12.97
2024-01-24T10:05:16.618Z,12.84
2024-01-24T10:08:19.411Z,13.04
2024-01-24T10:11:23.226Z,13.04
2024-01-24T10:14:25.006Z,13.11
2024-01-24T10:17:32.815Z,13.28
2024-01-24T10:20:36.032Z,13.27
2024-01-24T10:23:37.667Z,13.26
2024-01-24T10:26:44.534Z,13.28
2024-01-24T10:29:50.573Z,13.24
2024-01-24T10:32:59.148Z,13.28
2024-01-24T10:36:10.582Z,13.37
2024-01-24T10:39:21.215Z,13.55
2024-01-24T10:42:29.849Z,13.59
2024-01-24T10:45:44.929Z,13.49
2024-01-24T10:48:48.657Z,13.53
2024-01-24T10:51:51.880Z,13.30
2024-01-24T10:54:55.592Z,13.30
2024-01-24T10:57:57.840Z,13.33
2024-01-24T11:00:59.877Z,13.26
2024-01-24T11:04:07.886Z,13.48
2024-01-24T11:07:16.875Z,13.39
2024-01-24T11:10:24.112Z,13.34
2024-01-24T11:13:25.969Z,13.20
2024-01-24T11:16:32.219Z,13.26
2024-01-24T11:19:35.708Z,13.35
2024-01-24T11:22:38.197Z,13.26
2024-01-24T11:25:40.002Z,13.38
2024-01-24T11:28:41.865Z,13.39
2024-01-24T11:31:44.458Z,13.23
2024-01-24T11:34:48.256Z,13.32
2024-01-24T11:37:51.763Z,13.25
2024-01-24T11:40:58.499Z,13.25
2024-01-24T11:44:00.683Z,13.30
2024-01-24T11:47:02.755Z,13.26
2024-01-24T11:50:08.923Z,13.36
2024-01-24T11:53:10.415Z,13.28
2024-01-24T11:56:15.422Z,13.24
2024-01-24T11:59:20.878Z,13.30
2024-01-24T12:02:23.039Z,13.30
2024-01-24T12:05:26.074Z,13.41
2024-01-24T12:08:28.882Z,13.32
2024-01-24T12:11:30.509Z,13.27
2024-01-24T12:14:32.794Z,13.19
2024-01-24T12:17:36.132Z,13.07
2024-01-24T12:20:48.474Z,13.15
2024-01-24T12:23:50.674Z,13.17
2024-01-24T12:26:53.860Z,13.23
2024-01-24T12:29:56.366Z,13.16
2024-01-24T12:32:58.835Z,13.23
2024-01-24T12:36:05.958Z,13.51
2024-01-24T12:39:07.731Z,13.52
2024-01-24T12:42:09.432Z,13.75
2024-01-24T12:45:15.165Z,13.54
2024-01-24T12:48:17.561Z,13.40
2024-01-24T12:51:20.633Z,13.24
2024-01-24T12:54:32.461Z,13.19
2024-01-24T13:00:37.087Z,13.02
2024-01-24T13:03:38.947Z,12.96
2024-01-24T13:06:42.448Z,12.93
2024-01-24T13:09:50.246Z,12.91
2024-01-24T13:12:56.637Z,13.10
2024-01-24T13:15:59.756Z,13.12
2024-01-24T13:19:02.860Z,13.07
2024-01-24T13:22:06.242Z,13.53
2024-01-24T13:25:09.598Z,13.15
2024-01-24T13:28:12.928Z,13.00
2024-01-24T13:31:16.231Z,12.92
2024-01-24T13:34:21.989Z,12.88
2024-01-24T13:37:25.519Z,12.89
2024-01-24T13:40:27.336Z,12.76
2024-01-24T13:43:29.218Z,12.76
2024-01-24T13:46:31.358Z,12.73
2024-01-24T13:49:44.491Z,12.58
2024-01-24T13:52:48.567Z,12.60
2024-01-24T13:55:50.718Z,12.60
2024-01-24T13:58:53.798Z,12.50
2024-01-24T14:02:00.047Z,12.63
2024-01-24T14:05:03.254Z,12.54
2024-01-24T14:08:16.525Z,12.63
2024-01-24T14:11:21.170Z,12.69
2024-01-24T14:14:41.754Z,12.59
2024-01-24T14:18:39.671Z,12.64
2024-01-24T14:21:42.066Z,12.66
2024-01-24T14:24:44.090Z,12.55
2024-01-24T14:27:45.934Z,12.57
2024-01-24T14:30:47.728Z,12.50
2024-01-24T14:33:51.033Z,12.52
2024-01-24T14:36:56.031Z,12.34
2024-01-24T14:40:07.731Z,12.27
2024-01-24T14:43:09.615Z,12.32
2024-01-24T14:46:15.417Z,12.35
2024-01-24T14:49:38.522Z,12.28
2024-01-24T14:53:45.568Z,12.44
2024-01-24T14:56:48.641Z,12.36
2024-01-24T14:59:51.141Z,12.20
2024-01-24T15:02:52.940Z,12.15
2024-01-24T15:05:54.718Z,12.16
2024-01-24T15:08:57.847Z,12.14
2024-01-24T15:11:59.611Z,12.14
2024-01-24T15:15:20.343Z,12.15
2024-01-24T15:20:38.534Z,11.96
2024-01-24T15:23:45.035Z,11.94
2024-01-24T15:26:46.841Z,11.83
2024-01-24T15:29:49.436Z,11.80
2024-01-24T15:32:51.767Z,11.82
2024-01-24T15:35:54.905Z,11.63
2024-01-24T15:38:56.720Z,11.66
2024-01-24T15:42:01.576Z,11.56
2024-01-24T15:45:04.063Z,11.53
2024-01-24T15:48:06.751Z,11.72
2024-01-24T15:51:21.037Z,11.88
2024-01-24T15:54:22.922Z,11.52
2024-01-24T15:57:24.900Z,11.50
2024-01-24T16:00:26.788Z,11.39
2024-01-24T16:03:33.559Z,11.51
2024-01-24T16:06:36.878Z,11.60
2024-01-24T16:09:39.655Z,11.52
2024-01-24T16:12:41.640Z,11.44
2024-01-24T16:16:03.488Z,11.41
2024-01-24T16:19:22.561Z,11.38
2024-01-24T16:22:32.831Z,11.53
2024-01-24T16:25:38.280Z,11.46
2024-01-24T16:28:40.443Z,11.19
2024-01-24T16:31:42.282Z,11.32
2024-01-24T16:34:44.131Z,11.36
2024-01-24T16:37:47.250Z,11.24
2024-01-24T16:40:49.234Z,11.29
2024-01-24T16:43:51.583Z,11.09
2024-01-24T16:46:57.964Z,11.23
2024-01-24T16:49:59.840Z,11.19
2024-01-24T16:53:03.128Z,11.12
2024-01-24T16:56:05.150Z,11.17
2024-01-24T16:59:07.310Z,11.16
2024-01-24T17:02:34.841Z,11.22
2024-01-24T17:05:44.320Z,11.20
2024-01-24T17:08:51.979Z,11.13
2024-01-24T17:11:53.733Z,11.13
2024-01-24T17:15:14.644Z,11.05
2024-01-24T17:18:16.662Z,11.04
2024-01-24T17:21:23.217Z,10.98
2024-01-24T17:24:46.434Z,10.83
2024-01-24T17:27:48.330Z,10.74
2024-01-24T17:30:51.863Z,10.76
2024-01-24T17:33:53.743Z,10.61
2024-01-24T17:36:55.649Z,10.68
2024-01-24T17:39:58.719Z,10.67
2024-01-24T17:43:00.581Z,10.52
2024-01-24T17:46:02.519Z,10.48
2024-01-24T17:49:04.472Z,10.59
2024-01-24T17:52:06.783Z,10.62
2024-01-24T17:55:10.600Z,10.59
2024-01-24T17:58:12.653Z,10.40
2024-01-24T18:01:14.495Z,10.32
2024-01-24T18:04:16.399Z,10.34
2024-01-24T18:07:20.656Z,10.33
2024-01-24T18:10:26.206Z,10.25
2024-01-24T18:13:29.189Z,10.12
2024-01-24T18:16:31.070Z,9.93
2024-01-24T18:19:33.624Z,10.01
2024-01-24T18:22:35.749Z,9.87
2024-01-24T18:25:42.506Z,10.01
2024-01-24T18:28:44.473Z,9.99
2024-01-24T18:31:46.495Z,10.23
2024-01-24T18:34:48.598Z,10.06
2024-01-24T18:37:50.708Z,10.02
2024-01-24T18:40:54.109Z,9.91
2024-01-24T18:43:55.989Z,9.91
2024-01-24T18:46:58.650Z,9.79
2024-01-24T18:50:01.080Z,10.02
2024-01-24T18:53:04.071Z,9.82
2024-01-24T18:56:08.382Z,9.98
2024-01-24T18:59:13.868Z,9.88
2024-01-24T19:02:18.441Z,9.71
2024-01-24T19:05:26.652Z,9.87
2024-01-24T19:08:39.606Z,9.72
2024-01-24T19:11:55.252Z,9.55
2024-01-24T19:14:57.605Z,9.68
2024-01-24T19:18:07.268Z,9.63
2024-01-24T19:21:18.382Z,9.65
2024-01-24T19:24:23.722Z,9.50
2024-01-24T19:27:27.256Z,9.39
2024-01-24T19:30:29.589Z,9.41
2024-01-24T19:33:34.256Z,9.31
2024-01-24T19:36:36.571Z,9.31
2024-01-24T19:39:40.302Z,9.20
2024-01-24T19:42:47.535Z,9.19
2024-01-24T19:45:49.864Z,9.28
2024-01-24T19:48:54.918Z,9.22
2024-01-24T19:51:57.111Z,9.26
2024-01-24T19:54:58.972Z,9.29
2024-01-24T19:58:03.301Z,9.39
2024-01-24T20:01:05.887Z,9.35
2024-01-24T20:04:08.074Z,9.31
2024-01-24T20:07:14.374Z,9.05
2024-01-24T20:10:16.859Z,9.17
2024-01-24T20:13:21.780Z,9.25
2024-01-24T20:16:31.303Z,9.25
2024-01-24T20:19:33.167Z,9.12
2024-01-24T20:22:35.415Z,9.22
2024-01-24T20:25:37.150Z,9.29
2024-01-24T20:28:40.524Z,9.17
2024-01-24T20:31:42.226Z,9.08
2024-01-24T20:34:44.197Z,9.22
2024-01-24T20:37:46.133Z,9.22
2024-01-24T20:40:47.850Z,9.27
2024-01-24T20:43:50.993Z,9.16
2024-01-24T20:46:52.699Z,9.24
2024-01-24T20:49:56.085Z,9.22
2024-01-24T20:52:57.938Z,9.24
2024-01-24T20:55:59.894Z,9.25
2024-01-24T20:59:02.924Z,9.20
2024-01-24T21:02:05.139Z,9.10
2024-01-24T21:05:07.954Z,9.08
2024-01-24T21:08:12.671Z,9.07
2024-01-24T21:11:17.771Z,9.15
2024-01-24T21:14:21.349Z,9.06
2024-01-24T21:17:23.072Z,9.20
2024-01-24T21:20:24.984Z,8.88
2024-01-24T21:23:27.177Z,8.92
2024-01-24T21:26:28.938Z,9.14
2024-01-24T21:29:31.953Z,9.05
2024-01-24T21:32:34.462Z,8.94
2024-01-24T21:35:36.884Z,8.87
2024-01-24T21:38:38.655Z,8.94
2024-01-24T21:41:40.405Z,9.00
2024-01-24T21:44:44.046Z,9.01
2024-01-24T21:47:46.140Z,9.08
2024-01-24T21:50:47.964Z,9.15
2024-01-24T21:53:49.728Z,9.18
2024-01-24T21:56:53.172Z,9.19
2024-01-24T21:59:56.189Z,9.18
2024-01-24T22:02:57.868Z,9.19
2024-01-24T22:05:59.518Z,9.03
2024-01-24T22:09:01.483Z,8.97
2024-01-24T22:12:03.544Z,9.21
2024-01-24T22:15:09.144Z,9.09
2024-01-24T22:18:11.917Z,9.04
2024-01-24T22:21:13.979Z,8.91
2024-01-24T22:24:15.807Z,9.01
2024-01-24T22:27:17.798Z,9.26
2024-01-24T22:30:20.834Z,9.16
2024-01-24T22:33:23.039Z,9.04
2024-01-24T22:36:30.054Z,9.15
2024-01-24T22:39:31.899Z,9.25
2024-01-24T22:42:33.631Z,9.29
2024-01-24T22:45:36.827Z,9.25
2024-01-24T22:48:38.875Z,9.09
2024-01-24T22:51:40.972Z,9.14
2024-01-24T22:54:42.880Z,9.18
2024-01-24T22:57:49.997Z,9.10
2024-01-24T23:00:53.924Z,9.16
2024-01-24T23:03:55.906Z,9.25
2024-01-24T23:06:57.802Z,9.34
2024-01-24T23:09:59.871Z,9.25
2024-01-24T23:13:01.681Z,9.21
2024-01-24T23:16:05.813Z,9.21
2024-01-24T23:19:08.066Z,9.17
2024-01-24T23:22:09.930Z,9.30
2024-01-24T23:25:11.723Z,9.22
2024-01-24T23:28:15.915Z,9.21
2024-01-24T23:31:19.055Z,9.15
2024-01-24T23:34:20.978Z,9.24
2024-01-24T23:37:22.920Z,9.13
2024-01-24T23:40:24.734Z,9.07
2024-01-24T23:43:26.662Z,9.12
2024-01-24T23:46:34.283Z,9.16
2024-01-24T23:49:37.156Z,9.13
2024-01-24T23:52:39.115Z,9.31
2024-01-24T23:55:40.896Z,9.21
2024-01-24T23:58:42.570Z,9.34
